Time;durP1;ratioP1;P1;durP2;ratioP2;P2;SDS_P1;SDS_P2;PMS_P1;PMS_P2;Temp;Humidity;BMP_temperature;BMP_pressure;BME280_temperature;BME280_humidity;BME280_pressure;Samples;Min_cycle;Max_cycle;Signal;HPM_P1;HPM_P2
2023/09/14 00:02:20;;;;;;;;;;;;;;;13.37;90.47656;102414.3;;;;-82
2023/09/14 00:07:23;;;;;;;;;;;;;;;13.1;90.2207;102414.3;;;;-81
2023/09/14 00:12:20;;;;;;;;;;;;;;;13.01;86.52734;102412.5;;;;-81
2023/09/14 00:17:20;;;;;;;;;;;;;;;12.93;85.10059;102417.7;;;;-80
2023/09/14 00:22:20;;;;;;;;;;;;;;;12.88;84.83496;102418.8;;;;-82
2023/09/14 00:27:21;;;;;;;;;;;;;;;12.78;91.30762;102416.6;;;;-80
2023/09/14 00:28:33;;;;;;;4.5;1.8;;;;;;;;;;;;;-80
2023/09/14 00:32:20;;;;;;;;;;;;;;;12.68;88.95703;102415.8;;;;-81
2023/09/14 00:37:23;;;;;;;;;;;;;;;12.59;87.06641;102419.1;;;;-82
2023/09/14 00:42:20;;;;;;;;;;;;;;;12.51;87.98047;102414;;;;-82
2023/09/14 00:47:20;;;;;;;;;;;;;;;12.43;88.04492;102413.2;;;;-81
2023/09/14 00:52:20;;;;;;;;;;;;;;;12.37;88.58691;102411.4;;;;-80
2023/09/14 00:57:20;;;;;;;;;;;;;;;12.31;90.58984;102412.8;;;;-82
2023/09/14 00:58:44;;;;;;;5.9;2.3;;;;;;;;;;;;;-81
2023/09/14 01:02:33;;;;;;;;;;;;;;;12.23;89.58691;102418.1;;;;-81
2023/09/14 01:07:21;;;;;;;;;;;;;;;12.19;90.48828;102413.2;;;;-80
2023/09/14 01:12:24;;;;;;;;;;;;;;;12.12;89.46777;102406.2;;;;-81
2023/09/14 01:17:26;;;;;;;;;;;;;;;12.09;90.84375;102407.1;;;;-80
2023/09/14 01:22:35;;;;;;;;;;;;;;;12;87.55859;102405.7;;;;-80
2023/09/14 01:27:22;;;;;;;;;;;;;;;11.93;85.29492;102402.7;;;;-81
2023/09/14 01:28:36;;;;;;;4.8;2.2;;;;;;;;;;;;;-82
2023/09/14 01:32:20;;;;;;;;;;;;;;;11.89;87.05957;102401.9;;;;-81
2023/09/14 01:37:20;;;;;;;;;;;;;;;11.82;84.96387;102395.4;;;;-82
2023/09/14 01:42:22;;;;;;;;;;;;;;;11.79;90.28418;102398;;;;-80
2023/09/14 01:47:38;;;;;;;;;;;;;;;11.79;90.81445;102397.5;;;;-80
2023/09/14 01:52:30;;;;;;;;;;;;;;;11.92;93.25195;102391.9;;;;-83
2023/09/14 01:57:38;;;;;;;;;;;;;;;11.99;93.23438;102392;;;;-82
2023/09/14 02:22:27;;;;;;;;;;;;;;;11.97;93.31934;102381.9;;;;-80
2023/09/14 02:27:30;;;;;;;;;;;;;;;11.99;97.78906;102373.1;;;;-80
2023/09/14 02:28:38;;;;;;;8.8;2;;;;;;;;;;;;;-81
2023/09/14 02:32:28;;;;;;;;;;;;;;;12.05;96.50684;102376.6;;;;-81
2023/09/14 02:37:28;;;;;;;;;;;;;;;12.06;97.60254;102375.2;;;;-81
2023/09/14 02:42:27;;;;;;;;;;;;;;;12.07;98.13477;102367.6;;;;-82
2023/09/14 02:47:27;;;;;;;;;;;;;;;12.04;97.38867;102367.8;;;;-81
2023/09/14 02:52:28;;;;;;;;;;;;;;;11.97;98.20313;102361.2;;;;-80
2023/09/14 02:57:27;;;;;;;;;;;;;;;11.95;97.63574;102357.3;;;;-79
2023/09/14 02:58:40;;;;;;;7.6;1.5;;;;;;;;;;;;;-81
2023/09/14 03:02:31;;;;;;;;;;;;;;;11.94;97.64453;102359.7;;;;-81
2023/09/14 03:07:27;;;;;;;;;;;;;;;11.93;97.02441;102356;;;;-82
2023/09/14 03:12:29;;;;;;;;;;;;;;;11.94;96.80371;102362.9;;;;-81
2023/09/14 03:17:29;;;;;;;;;;;;;;;11.91;96.91895;102365.6;;;;-82
2023/09/14 03:22:29;;;;;;;;;;;;;;;11.82;92.81152;102358.2;;;;-81
2023/09/14 03:27:27;;;;;;;;;;;;;;;11.8;96.11035;102357.3;;;;-80
2023/09/14 03:28:50;;;;;;;6;1.5;;;;;;;;;;;;;-80
2023/09/14 03:32:38;;;;;;;;;;;;;;;11.77;97.03223;102352.9;;;;-80
2023/09/14 03:37:27;;;;;;;;;;;;;;;11.77;97.18652;102357;;;;-80
2023/09/14 03:42:30;;;;;;;;;;;;;;;11.75;98.7168;102355;;;;-82
2023/09/14 03:47:35;;;;;;;;;;;;;;;11.76;100;102357.4;;;;-81
2023/09/14 03:52:27;;;;;;;;;;;;;;;11.71;100;102353.9;;;;-81
2023/09/14 03:57:27;;;;;;;;;;;;;;;11.69;100;102356.5;;;;-81
2023/09/14 03:58:43;;;;;;;7.9;1.9;;;;;;;;;;;;;-81
2023/09/14 04:02:28;;;;;;;;;;;;;;;11.66;100;102357.6;;;;-81
2023/09/14 04:07:30;;;;;;;;;;;;;;;11.68;100;102354.8;;;;-82
2023/09/14 04:12:27;;;;;;;;;;;;;;;11.66;100;102346.3;;;;-81
2023/09/14 04:39:16;;;;;;;;;;;;;;;11.59;100;102351.4;;;;-82
2023/09/14 04:44:26;;;;;;;;;;;;;;;11.62;100;102352.9;;;;-81
2023/09/14 04:54:20;;;;;;;;;;;;;;;11.59;100;102361;;;;-80
2023/09/14 05:00:14;;;;;;;;;;;;;;;11.5;100;102362.3;;;;-82
2023/09/14 05:04:15;;;;;;;;;;;;;;;11.53;100;102377.6;;;;-81
2023/09/14 05:09:10;;;;;;;;;;;;;;;11.44;100;102375.6;;;;-82
2023/09/14 05:14:33;;;;;;;;;;;;;;;11.38;100;102380.4;;;;-82
2023/09/14 05:19:21;;;;;;;;;;;;;;;11.38;100;102375.9;;;;-82
2023/09/14 05:24:28;;;;;;;;;;;;;;;11.4;100;102375.1;;;;-82
2023/09/14 05:31:52;;;;;;;;;;;;;;;11.54;100;102379.4;;;;-81
2023/09/14 05:37:28;;;;;;;;;;;;;;;;;;;;;
2023/09/14 05:58:58;;;;;;;;;;;;;;;11.9;100;102385.3;;;;-83
2023/09/14 06:03:52;;;;;;;;;;;;;;;12.05;100;102387.2;;;;-80
2023/09/14 06:08:39;;;;;;;;;;;;;;;12.43;100;102390.4;;;;-82
2023/09/14 07:34:03;;;;;;;;;;;;;;;15.49;86.2207;102402.7;;;;-82
2023/09/14 11:08:25;;;;;;;;;;;;;;;23.22;47.0625;102350.8;;;;-82
2023/09/14 11:52:51;;;;;;;;;;;;;;;23.42;42.62695;102331.5;;;;-81
2023/09/14 12:14:31;;;;;;;;;;;;;;;23.69;41.12988;102336.2;;;;-80
2023/09/14 12:51:42;;;;;;;;;;;;;;;23.54;41.39355;102314.6;;;;-81
2023/09/14 13:01:38;;;;;;;;;;;;;;;24.02;40.50293;102306.6;;;;-80
2023/09/14 13:51:33;;;;;;;;;;;;;;;24;40.2002;102252.4;;;;-82
2023/09/14 14:07:45;;;;;;;;;;;;;;;;;;;;;
2023/09/14 14:17:29;;;;;;;;;;;;;;;;;;;;;
2023/09/14 14:52:16;;;;;;;;;;;;;;;24.26;37.80957;102210;;;;-79
2023/09/14 14:57:10;;;;;;;;;;;;;;;23.95;37.94531;102215.9;;;;-80
2023/09/14 14:59:47;;;;;;;8.9;2.9;;;;;;;;;;;;;-82
2023/09/14 15:02:13;;;;;;;;;;;;;;;23.3;40.28809;102216.1;;;;-81
2023/09/14 15:07:13;;;;;;;;;;;;;;;23.45;42.15723;102214.2;;;;-80
2023/09/14 15:12:05;;;;;;;;;;;;;;;23.11;40.80078;102213.3;;;;-81
2023/09/14 15:17:14;;;;;;;;;;;;;;;22.95;41.05078;102209.1;;;;-82
2023/09/14 15:22:05;;;;;;;;;;;;;;;22.74;41.71094;102207.7;;;;-78
2023/09/14 15:27:12;;;;;;;;;;;;;;;22.44;42.70605;102210.9;;;;-81
2023/09/14 15:29:58;;;;;;;6.3;3.1;;;;;;;;;;;;;-80
2023/09/14 15:32:11;;;;;;;;;;;;;;;22.11;42.97363;102208.1;;;;-78
2023/09/14 15:37:06;;;;;;;;;;;;;;;22.13;42.99805;102203.2;;;;-81
2023/09/14 15:42:06;;;;;;;;;;;;;;;22.1;43.06348;102199.5;;;;-82
2023/09/14 15:47:07;;;;;;;;;;;;;;;22.39;43.09277;102202;;;;-82
2023/09/14 15:52:13;;;;;;;;;;;;;;;22.57;42.56836;102193;;;;-81
2023/09/14 15:57:08;;;;;;;;;;;;;;;22.28;43.4834;102191.1;;;;-84
2023/09/14 15:59:55;;;;;;;7.8;3.1;;;;;;;;;;;;;-82
2023/09/14 16:02:17;;;;;;;;;;;;;;;22.13;44.06641;102188.2;;;;-81
2023/09/14 16:07:17;;;;;;;;;;;;;;;22.16;44.23047;102191.6;;;;-86
2023/09/14 16:12:04;;;;;;;;;;;;;;;21.93;44.94141;102187.4;;;;-81
2023/09/14 16:17:04;;;;;;;;;;;;;;;21.92;45.37695;102164.3;;;;-80
2023/09/14 16:22:07;;;;;;;;;;;;;;;22.15;44.96484;102180.4;;;;-81
2023/09/14 16:27:12;;;;;;;;;;;;;;;21.97;45.08398;102184.3;;;;-80
2023/09/14 16:29:57;;;;;;;7.6;3.8;;;;;;;;;;;;;-80
2023/09/14 16:32:06;;;;;;;;;;;;;;;21.77;45.65918;102184.6;;;;-80
2023/09/14 16:37:05;;;;;;;;;;;;;;;21.58;46.64941;102179.5;;;;-82
2023/09/14 16:42:07;;;;;;;;;;;;;;;21.23;47.95215;102179.2;;;;-83
2023/09/14 16:47:06;;;;;;;;;;;;;;;21.27;48.7002;102174.4;;;;-82
2023/09/14 16:52:05;;;;;;;;;;;;;;;21.24;49.00586;102178.3;;;;-83
2023/09/14 16:57:06;;;;;;;;;;;;;;;21.22;49.34668;102178.7;;;;-85
2023/09/14 17:00:03;;;;;;;7.2;3.5;;;;;;;;;;;;;-82
2023/09/14 17:02:06;;;;;;;;;;;;;;;21.19;50.30371;102177.7;;;;-82
2023/09/14 17:07:06;;;;;;;;;;;;;;;21.12;50.75391;102172.9;;;;-82
2023/09/14 17:12:05;;;;;;;;;;;;;;;20.96;51.57129;102170.7;;;;-82
2023/09/14 17:17:05;;;;;;;;;;;;;;;20.82;52.44531;102163.7;;;;-81
2023/09/14 17:22:04;;;;;;;;;;;;;;;20.7;53.17285;102170;;;;-80
2023/09/14 17:27:04;;;;;;;;;;;;;;;20.53;54.17969;102176.1;;;;-80
2023/09/14 17:32:33;;;;;;;;;;;;;;;20.39;54.9834;102171.5;;;;-81
2023/09/14 17:43:46;;;;;;;;;;;;;;;19.98;57.1416;102167.7;;;;-82
2023/09/14 18:00:23;;;;;;;8.9;3.6;;;;;;;;;;;;;-81
2023/09/14 18:05:31;;;;;;;;;;;;;;;19.29;60.32422;102155.3;;;;-82
2023/09/14 18:40:24;;;;;;;;;;;;;;;18.41;65.13184;102166;;;;-81
2023/09/14 18:45:23;;;;;;;;;;;;;;;18.32;66.10352;102170.8;;;;-79
2023/09/14 18:50:23;;;;;;;;;;;;;;;18.19;66.67188;102166.5;;;;-81
2023/09/14 18:55:23;;;;;;;;;;;;;;;17.99;67.26367;102156.7;;;;-80
2023/09/14 19:00:15;;;;;;;9.6;4.2;;;;;;;;;;;;;-79
2023/09/14 19:00:27;;;;;;;;;;;;;;;17.9;67.53223;102164.5;;;;-78
2023/09/14 19:05:23;;;;;;;;;;;;;;;17.83;68.88867;102174;;;;-79
2023/09/14 19:10:32;;;;;;;;;;;;;;;17.73;68.52344;102171.8;;;;-80
2023/09/14 19:15:25;;;;;;;;;;;;;;;17.7;70.03125;102182.7;;;;-80
2023/09/14 19:20:25;;;;;;;;;;;;;;;17.61;71.35742;102191;;;;-80
2023/09/14 19:25:24;;;;;;;;;;;;;;;17.37;71.74805;102165.4;;;;-80
2023/09/14 19:30:20;;;;;;;8.5;4.5;;;;;;;;;;;;;-79
2023/09/14 19:30:31;;;;;;;;;;;;;;;17.43;72.56934;102192.6;;;;-79
2023/09/14 19:35:34;;;;;;;;;;;;;;;17.25;70.86035;102179.1;;;;-81
2023/09/14 19:40:26;;;;;;;;;;;;;;;17.25;70.25195;102191.5;;;;-79
2023/09/14 19:45:23;;;;;;;;;;;;;;;17.2;72.88086;102192.9;;;;-83
2023/09/14 19:50:25;;;;;;;;;;;;;;;17.12;73.5752;102186.6;;;;-80
2023/09/14 19:55:23;;;;;;;;;;;;;;;16.99;73.8125;102175.9;;;;-78
2023/09/14 20:00:18;;;;;;;8.4;4.5;;;;;;;;;;;;;-79
2023/09/14 20:00:30;;;;;;;;;;;;;;;16.73;74.67969;102142.5;;;;-78
2023/09/14 20:05:24;;;;;;;;;;;;;;;16.92;74.86914;102182.8;;;;-81
2023/09/14 20:10:24;;;;;;;;;;;;;;;16.87;74.56738;102182.2;;;;-81
2023/09/14 20:15:23;;;;;;;;;;;;;;;16.75;75.90918;102171.3;;;;-79
2023/09/14 20:20:24;;;;;;;;;;;;;;;16.63;77.73145;102165.6;;;;-78
2023/09/14 20:25:23;;;;;;;;;;;;;;;16.4;79.58594;102136.5;;;;-80
2023/09/14 20:30:21;;;;;;;11.2;5.5;;;;;;;;;;;;;-80
2023/09/14 20:30:33;;;;;;;;;;;;;;;16.34;79.97754;102135.9;;;;-78
2023/09/14 20:35:23;;;;;;;;;;;;;;;16.43;79.89453;102158.8;;;;-79
2023/09/14 20:40:26;;;;;;;;;;;;;;;16.48;78.16406;102176.9;;;;-80
2023/09/14 20:45:23;;;;;;;;;;;;;;;16.43;78.8623;102180.4;;;;-81
2023/09/14 20:50:24;;;;;;;;;;;;;;;16.3;79.69043;102157.1;;;;-79
2023/09/14 20:55:23;;;;;;;;;;;;;;;16.08;79.54004;102117.4;;;;-80
2023/09/14 21:06:27;;;;;;;;;;;;;;;16.3;81.2168;102179;;;;-81
2023/09/14 21:17:36;;;;;;;;;;;;;;;16.2;83.50684;102169.7;;;;-81
2023/09/14 21:45:13;;;;;;;;;;;;;;;15.91;87.83594;102166.5;;;;-80
